Weather at NA Air Service Helipad

Public forecast

Using degrees Celsius for public forecast. Weather courtesy of forecast.io.

Closest aviation weather report (METAR) to NA Air Service Helipad

Closest report is Supadio Airport, 8.7 nm (16.1 km) SSE.

2024/05/26 16:30 (retrieved 48 minutes ago)

WIOO 261630Z AUTO 10003KT 070V140 9999 -RA FEW055 SCT075 BKN150 26/26 Q1009

Closest aviation forecast (TAF) to NA Air Service Helipad

Closest forecast is Kuching International Airport, 109.3 nm (202.5 km) NE.

2024/05/26 12:09 (retrieved 5 hours ago)

TAF TAF WBGG 261100Z 2612/2712 24005KT 9999 FEW018 TEMPO 2622/2701 5000 TSRA FEW015CB